Time;durP1;ratioP1;P1;durP2;ratioP2;P2;SDS_P1;SDS_P2;PMS_P1;PMS_P2;Temp;Humidity;BMP_temperature;BMP_pressure;BME280_temperature;BME280_humidity;BME280_pressure;Samples;Min_cycle;Max_cycle;Signal;HPM_P1;HPM_P2
2021/12/01 00:00:22;;;;;;;;;;;;;;;;;;4549516;28;19924;-71
2021/12/01 00:02:32;;;;;;;;;;;;;;;;;;4546670;28;19920;-71
2021/12/01 00:04:43;;;;;;;;;;;;;;;;;;4549213;28;19917;-71
2021/12/01 00:06:53;;;;;;;;;;;;;;;;;;4548580;28;20667;-71
2021/12/01 00:09:03;;;;;;;;;;;;;;;;;;4549311;28;19921;-71
2021/12/01 00:11:14;;;;;;;;;;;;;;;;;;4549137;28;19923;-71
2021/12/01 00:13:25;;;;;;;;;;;;;;;;;;4549431;28;19920;-71
2021/12/01 00:15:35;;;;;;;;;;;;;;;;;;4546518;28;21665;-70
2021/12/01 00:17:46;;;;;;;;;;;;;;;;;;4534847;28;20016;-71
2021/12/01 00:19:56;;;;;;;;;;;;;;;;;;4549323;28;19920;-71
2021/12/01 00:22:07;;;;;;;;;;;;;;;;;;4548489;28;19940;-71
2021/12/01 00:24:17;;;;;;;;;;;;;;;;;;4547043;28;19913;-71
2021/12/01 00:26:28;;;;;;;;;;;;;;;;;;4547038;28;19921;-71
2021/12/01 00:28:38;;;;;;;;;;;;;;;;;;4548674;28;19917;-70
2021/12/01 00:30:48;;;;;;;;;;;;;;;;;;4546404;28;20211;-71
2021/12/01 00:32:59;;;;;;;;;;;;;;;;;;4547182;28;19916;-71
2021/12/01 00:35:09;;;;;;;;;;;;;;;;;;4547823;28;19916;-71
2021/12/01 00:37:20;;;;;;;;;;;;;;;;;;4548383;28;20020;-70
2021/12/01 00:39:30;;;;;;;;;;;;;;;;;;4563396;28;19970;-71
2021/12/01 00:41:41;;;;;;;;;;;;;;;;;;4551221;28;19916;-71
2021/12/01 00:43:52;;;;;;;;;;;;;;;;;;4547900;28;19916;-71
2021/12/01 00:48:39;;;;;;;;;;;;;;;;;;4528635;28;19923;-71
2021/12/01 00:50:50;;;;;;;;;;;;;;;;;;4546189;28;20303;-72
2021/12/01 00:53:05;;;;;;;;;;;;;;;;;;4545604;28;19962;-71
2021/12/01 00:55:15;;;;;;;;;;;;;;;;;;4548486;28;19920;-71
2021/12/01 00:57:26;;;;;;;;;;;;;;;;;;4547562;28;19927;-71
2021/12/01 00:59:36;;;;;;;;;;;;;;;;;;4547807;28;30984;-70
2021/12/01 01:01:46;;;;;;;;;;;;;;;;;;4546659;28;19920;-71
2021/12/01 01:03:57;;;;;;;;;;;;;;;;;;4549291;28;19916;-71
2021/12/01 01:06:08;;;;;;;;;;;;;;;;;;4550066;28;20487;-71
2021/12/01 01:08:20;;;;;;;;;;;;;;;;;;4548158;28;19944;-70
2021/12/01 01:18:06;;;;;;;;;;;;;;;;;;4546163;28;20546;-71
2021/12/01 01:20:16;;;;;;;;;;;;;;;;;;4546203;28;20533;-70
2021/12/01 01:22:26;;;;;;;;;;;;;;;;;;4556780;28;19916;-71
2021/12/01 01:24:37;;;;;;;;;;;;;;;;;;4547697;28;20007;-71
2021/12/01 01:26:47;;;;;;;;;;;;;;;;;;4548270;28;19966;-70
2021/12/01 01:28:57;;;;;;;;;;;;;;;;;;4545837;28;19983;-70
2021/12/01 01:31:08;;;;;;;;;;;;;;;;;;4546355;28;19920;-70
2021/12/01 01:33:19;;;;;;;;;;;;;;;;;;4547509;28;19927;-70
2021/12/01 01:35:29;;;;;;;;;;;;;;;;;;4547375;28;19936;-70
2021/12/01 01:37:40;;;;;;;;;;;;;;;;;;4548103;28;20006;-70
2021/12/01 01:39:50;;;;;;;;;;;;;;;;;;4548006;28;20714;-70
2021/12/01 01:42:02;;;;;;;;;;;;;;;;;;4547133;28;19916;-70
2021/12/01 01:44:13;;;;;;;;;;;;;;;;;;4548672;28;20487;-70
2021/12/01 01:46:23;;;;;;;;;;;;;;;;;;4546587;28;19916;-70
2021/12/01 01:48:44;;;;;;;;;;;;;;;;;;4546796;28;19958;-70
2021/12/01 01:50:55;;;;;;;;;;;;;;;;;;4551581;28;19924;-70
2021/12/01 01:53:13;;;;;;;;;;;;;;;;;;4534262;28;19916;-70
2021/12/01 01:55:23;;;;;;;;;;;;;;;;;;4549155;28;19917;-70
2021/12/01 01:57:33;;;;;;;;;;;;;;;;;;4549710;28;19974;-71
2021/12/01 01:59:44;;;;;;;;;;;;;;;;;;4552922;28;19918;-70
2021/12/01 02:01:56;;;;;;;;;;;;;;;;;;4551194;28;19927;-70
2021/12/01 02:04:08;;;;;;;;;;;;;;;;;;4553892;28;19923;-70
2021/12/01 02:06:25;;;;;;;;;;;;;;;;;;4550974;28;19917;-70
2021/12/01 02:08:37;;;;;;;;;;;;;;;;;;4551932;28;19951;-70
2021/12/01 02:10:48;;;;;;;;;;;;;;;;;;4542258;28;19964;-70
2021/12/01 02:12:59;;;;;;;;;;;;;;;;;;4550149;28;20199;-70
2021/12/01 02:15:09;;;;;;;;;;;;;;;;;;4549902;28;20711;-70
2021/12/01 02:17:20;;;;;;;;;;;;;;;;;;4550570;28;20702;-70
2021/12/01 02:19:30;;;;;;;;;;;;;;;;;;4553301;28;19916;-70
2021/12/01 02:21:41;;;;;;;;;;;;;;;;;;4550136;28;19924;-69
2021/12/01 02:23:51;;;;;;;;;;;;;;;;;;4548770;28;20636;-70
2021/12/01 02:26:03;;;;;;;;;;;;;;;;;;4551382;28;20041;-70
2021/12/01 02:28:13;;;;;;;;;;;;;;;;;;4548871;28;20476;-70
2021/12/01 02:30:24;;;;;;;;;;;;;;;;;;4550529;28;19920;-71
2021/12/01 02:32:34;;;;;;;;;;;;;;;;;;4551777;28;19921;-71
2021/12/01 02:34:44;;;;;;;;;;;;;;;;;;4551059;28;19916;-71
2021/12/01 02:36:56;;;;;;;;;;;;;;;;;;4549740;28;20435;-72
2021/12/01 02:39:08;;;;;;;;;;;;;;;;;;4549129;28;19917;-71
2021/12/01 02:41:26;;;;;;;;;;;;;;;;;;4551070;28;19923;-70
2021/12/01 02:43:36;;;;;;;;;;;;;;;;;;4549930;28;20705;-70
2021/12/01 02:45:46;;;;;;;;;;;;;;;;;;4551346;28;19924;-70
2021/12/01 02:47:56;;;;;;;;;;;;;;;;;;4548512;28;24660;-71
2021/12/01 02:50:07;;;;;;;;;;;;;;;;;;4550579;28;19928;-71
2021/12/01 02:52:17;;;;;;;;;;;;;;;;;;4551200;28;19912;-71
2021/12/01 02:54:29;;;;;;;;;;;;;;;;;;4548754;28;19971;-70
2021/12/01 02:56:39;;;;;;;;;;;;;;;;;;4549951;28;19972;-70
2021/12/01 02:58:50;;;;;;;;;;;;;;;;;;4547103;28;25080;-70
2021/12/01 03:01:05;;;;;;;;;;;;;;;;;;4550658;28;19916;-70
2021/12/01 03:03:15;;;;;;;;;;;;;;;;;;4550057;28;20022;-70
2021/12/01 03:05:25;;;;;;;;;;;;;;;;;;4549996;28;20007;-70
2021/12/01 03:07:36;;;;;;;;;;;;;;;;;;4549358;28;20008;-70
2021/12/01 03:09:46;;;;;;;;;;;;;;;;;;4551477;28;19920;-70
2021/12/01 03:11:56;;;;;;;;;;;;;;;;;;4550758;28;19982;-70
2021/12/01 03:14:08;;;;;;;;;;;;;;;;;;4550653;28;20022;-70
2021/12/01 03:16:18;;;;;;;;;;;;;;;;;;4550325;28;19951;-70
2021/12/01 03:18:29;;;;;;;;;;;;;;;;;;4549031;28;19923;-70
2021/12/01 03:20:39;;;;;;;;;;;;;;;;;;4558754;28;19920;-70
2021/12/01 03:22:49;;;;;;;;;;;;;;;;;;4548105;28;20752;-70
2021/12/01 03:25:00;;;;;;;;;;;;;;;;;;4548817;28;20436;-69
2021/12/01 03:27:10;;;;;;;;;;;;;;;;;;4548137;28;19951;-69
2021/12/01 03:29:20;;;;;;;;;;;;;;;;;;4549988;28;19923;-70
2021/12/01 03:31:31;;;;;;;;;;;;;;;;;;4549327;28;19931;-70
2021/12/01 03:33:41;;;;;;;;;;;;;;;;;;4549140;28;19964;-70
2021/12/01 03:35:52;;;;;;;;;;;;;;;;;;4550552;28;19921;-70
2021/12/01 03:38:02;;;;;;;;;;;;;;;;;;4550114;28;19975;-70
2021/12/01 03:40:13;;;;;;;;;;;;;;;;;;4548723;28;19958;-70
2021/12/01 03:42:24;;;;;;;;;;;;;;;;;;4551522;28;19966;-70
2021/12/01 03:44:34;;;;;;;;;;;;;;;;;;4549873;28;19970;-70
2021/12/01 03:46:44;;;;;;;;;;;;;;;;;;4549406;28;19916;-70
2021/12/01 03:48:55;;;;;;;;;;;;;;;;;;4549996;28;31305;-70
2021/12/01 03:51:05;;;;;;;;;;;;;;;;;;4549212;28;19920;-69
2021/12/01 03:53:16;;;;;;;;;;;;;;;;;;4548759;28;25395;-69
2021/12/01 03:55:26;;;;;;;;;;;;;;;;;;4547198;28;19920;-69
2021/12/01 03:57:37;;;;;;;;;;;;;;;;;;4548161;28;19921;-69
2021/12/01 03:59:47;;;;;;;;;;;;;;;;;;4547846;28;19912;-69
2021/12/01 04:01:57;;;;;;;;;;;;;;;;;;4548632;28;20820;-69
2021/12/01 04:04:08;;;;;;;;;;;;;;;;;;4550827;28;20379;-69
2021/12/01 04:06:18;;;;;;;;;;;;;;;;;;4548188;28;19958;-69
2021/12/01 04:08:28;;;;;;;;;;;;;;;;;;4551181;28;19992;-69
2021/12/01 04:10:38;;;;;;;;;;;;;;;;;;4548663;28;20023;-69
2021/12/01 04:12:49;;;;;;;;;;;;;;;;;;4550749;28;19926;-69
2021/12/01 04:14:59;;;;;;;;;;;;;;;;;;4547823;28;19961;-71
2021/12/01 04:17:10;;;;;;;;;;;;;;;;;;4534892;28;19913;-69
2021/12/01 04:19:20;;;;;;;;;;;;;;;;;;4549919;28;19921;-70
2021/12/01 04:21:30;;;;;;;;;;;;;;;;;;4550344;28;19923;-70
2021/12/01 04:23:41;;;;;;;;;;;;;;;;;;4550575;28;19919;-70
2021/12/01 04:25:51;;;;;;;;;;;;;;;;;;4557660;28;19927;-70
2021/12/01 04:28:02;;;;;;;;;;;;;;;;;;4549696;28;19948;-70
2021/12/01 04:30:14;;;;;;;;;;;;;;;;;;4549386;28;19920;-70
2021/12/01 04:32:24;;;;;;;;;;;;;;;;;;4549253;28;19916;-70
2021/12/01 04:34:38;;;;;;;;;;;;;;;;;;4549485;28;19916;-70
2021/12/01 04:36:49;;;;;;;;;;;;;;;;;;4548164;28;19920;-70
2021/12/01 04:39:00;;;;;;;;;;;;;;;;;;4534458;28;20007;-70
2021/12/01 04:41:13;;;;;;;;;;;;;;;;;;4549502;28;19947;-70
2021/12/01 04:43:23;;;;;;;;;;;;;;;;;;4548203;28;19927;-70
2021/12/01 04:45:36;;;;;;;;;;;;;;;;;;4547587;28;19919;-70
2021/12/01 04:47:47;;;;;;;;;;;;;;;;;;4547541;28;19920;-70
2021/12/01 04:49:58;;;;;;;;;;;;;;;;;;4548933;28;19925;-70
2021/12/01 04:52:09;;;;;;;;;;;;;;;;;;4550132;28;19917;-70
2021/12/01 04:54:19;;;;;;;;;;;;;;;;;;4547352;28;19920;-70
2021/12/01 04:56:30;;;;;;;;;;;;;;;;;;4545417;28;19928;-70
2021/12/01 04:58:40;;;;;;;;;;;;;;;;;;4557163;28;20039;-70
2021/12/01 05:00:51;;;;;;;;;;;;;;;;;;4550506;28;19916;-70
2021/12/01 05:03:02;;;;;;;;;;;;;;;;;;4547765;28;19938;-71
2021/12/01 05:05:12;;;;;;;;;;;;;;;;;;4547425;28;20058;-71
2021/12/01 05:07:23;;;;;;;;;;;;;;;;;;4550734;28;19920;-71
2021/12/01 05:09:33;;;;;;;;;;;;;;;;;;4548897;28;19924;-70
2021/12/01 05:11:43;;;;;;;;;;;;;;;;;;4548281;28;19916;-70
2021/12/01 05:13:54;;;;;;;;;;;;;;;;;;4548509;28;20127;-71
2021/12/01 05:16:04;;;;;;;;;;;;;;;;;;4547301;28;19986;-71
2021/12/01 05:18:14;;;;;;;;;;;;;;;;;;4549433;28;19920;-70
2021/12/01 05:20:25;;;;;;;;;;;;;;;;;;4547709;28;20115;-70
2021/12/01 05:22:35;;;;;;;;;;;;;;;;;;4549111;28;19928;-70
2021/12/01 05:24:46;;;;;;;;;;;;;;;;;;4550679;28;20058;-70
2021/12/01 05:26:56;;;;;;;;;;;;;;;;;;4550273;28;19924;-70
2021/12/01 05:29:07;;;;;;;;;;;;;;;;;;4549847;28;19917;-70
2021/12/01 05:31:17;;;;;;;;;;;;;;;;;;4551013;28;19921;-71
2021/12/01 05:33:27;;;;;;;;;;;;;;;;;;4550509;28;19952;-70
2021/12/01 05:35:37;;;;;;;;;;;;;;;;;;4551711;28;23547;-70
2021/12/01 05:37:48;;;;;;;;;;;;;;;;;;4550648;28;19924;-70
2021/12/01 05:39:58;;;;;;;;;;;;;;;;;;4550952;28;21763;-70
2021/12/01 05:42:08;;;;;;;;;;;;;;;;;;4551061;28;19927;-70
2021/12/01 05:44:19;;;;;;;;;;;;;;;;;;4551016;28;20392;-70
2021/12/01 05:46:29;;;;;;;;;;;;;;;;;;4550411;28;19916;-70
2021/12/01 05:48:39;;;;;;;;;;;;;;;;;;4550242;28;19920;-70
2021/12/01 05:50:50;;;;;;;;;;;;;;;;;;4549241;28;19920;-70
2021/12/01 05:53:00;;;;;;;;;;;;;;;;;;4536117;28;19971;-70
2021/12/01 05:55:10;;;;;;;;;;;;;;;;;;4550455;28;19924;-70
2021/12/01 05:57:21;;;;;;;;;;;;;;;;;;4550830;28;20006;-70
2021/12/01 05:59:31;;;;;;;;;;;;;;;;;;4548976;28;19950;-70
2021/12/01 06:01:41;;;;;;;;;;;;;;;;;;4551217;28;19917;-70
2021/12/01 06:03:52;;;;;;;;;;;;;;;;;;4551132;28;19920;-69
2021/12/01 06:06:02;;;;;;;;;;;;;;;;;;4551061;28;19921;-70
2021/12/01 06:08:12;;;;;;;;;;;;;;;;;;4551174;28;20288;-70
2021/12/01 06:10:23;;;;;;;;;;;;;;;;;;4552495;28;20304;-69
2021/12/01 06:12:33;;;;;;;;;;;;;;;;;;4550513;28;19916;-69
2021/12/01 06:14:44;;;;;;;;;;;;;;;;;;4548242;28;19966;-70
2021/12/01 06:16:57;;;;;;;;;;;;;;;;;;4551563;28;19923;-69
2021/12/01 06:19:10;;;;;;;;;;;;;;;;;;4551012;28;19917;-69
2021/12/01 06:21:20;;;;;;;;;;;;;;;;;;4550520;28;19916;-68
2021/12/01 06:23:31;;;;;;;;;;;;;;;;;;4549224;28;19922;-69
2021/12/01 06:25:41;;;;;;;;;;;;;;;;;;4551779;28;19963;-68
2021/12/01 06:27:51;;;;;;;;;;;;;;;;;;4550934;28;20007;-69
2021/12/01 06:30:03;;;;;;;;;;;;;;;;;;4551508;28;19932;-69
2021/12/01 06:32:13;;;;;;;;;;;;;;;;;;4551988;28;20521;-69
2021/12/01 06:34:24;;;;;;;;;;;;;;;;;;4548583;28;24657;-69
2021/12/01 06:36:34;;;;;;;;;;;;;;;;;;4549715;28;20099;-69
2021/12/01 06:38:44;;;;;;;;;;;;;;;;;;4550041;28;20590;-69
2021/12/01 06:40:55;;;;;;;;;;;;;;;;;;4550053;28;19971;-69
2021/12/01 06:43:05;;;;;;;;;;;;;;;;;;4551541;28;19916;-70
2021/12/01 06:45:16;;;;;;;;;;;;;;;;;;4548749;28;20370;-70
2021/12/01 06:47:26;;;;;;;;;;;;;;;;;;4550032;28;20510;-70
2021/12/01 06:49:37;;;;;;;;;;;;;;;;;;4551120;28;19913;-69
2021/12/01 06:51:47;;;;;;;;;;;;;;;;;;4549173;28;19985;-70
2021/12/01 06:53:57;;;;;;;;;;;;;;;;;;4549593;28;20278;-70
2021/12/01 06:56:11;;;;;;;;;;;;;;;;;;4549420;28;20426;-70
2021/12/01 06:58:21;;;;;;;;;;;;;;;;;;4548907;28;19925;-70
2021/12/01 07:00:32;;;;;;;;;;;;;;;;;;4551294;28;19916;-70
2021/12/01 07:02:42;;;;;;;;;;;;;;;;;;4549334;28;19920;-70
2021/12/01 07:04:52;;;;;;;;;;;;;;;;;;4547929;28;19920;-70
2021/12/01 07:07:03;;;;;;;;;;;;;;;;;;4552274;28;20019;-68
2021/12/01 07:09:18;;;;;;;;;;;;;;;;;;4548961;28;19916;-68
2021/12/01 07:11:29;;;;;;;;;;;;;;;;;;4550094;28;19924;-68
2021/12/01 07:13:39;;;;;;;;;;;;;;;;;;4549570;28;20392;-69
2021/12/01 07:15:49;;;;;;;;;;;;;;;;;;4550907;28;20007;-69
2021/12/01 07:18:00;;;;;;;;;;;;;;;;;;4550078;28;20388;-69
2021/12/01 07:20:10;;;;;;;;;;;;;;;;;;4549363;28;20368;-68
2021/12/01 07:22:21;;;;;;;;;;;;;;;;;;4550804;28;20015;-69
2021/12/01 07:24:31;;;;;;;;;;;;;;;;;;4549951;28;19916;-68
2021/12/01 07:26:42;;;;;;;;;;;;;;;;;;4548523;28;19920;-68
2021/12/01 07:28:52;;;;;;;;;;;;;;;;;;4549175;28;19921;-69
2021/12/01 07:31:02;;;;;;;;;;;;;;;;;;4550922;28;19920;-69
2021/12/01 07:33:13;;;;;;;;;;;;;;;;;;4550340;28;19966;-69
2021/12/01 07:35:23;;;;;;;;;;;;;;;;;;4548673;28;20681;-69
2021/12/01 07:37:33;;;;;;;;;;;;;;;;;;4550007;28;20006;-69
2021/12/01 07:39:44;;;;;;;;;;;;;;;;;;4548708;28;19923;-69
2021/12/01 07:41:55;;;;;;;;;;;;;;;;;;4547864;28;19916;-68
2021/12/01 07:44:05;;;;;;;;;;;;;;;;;;4547514;28;19924;-69
2021/12/01 07:46:15;;;;;;;;;;;;;;;;;;4547981;28;20004;-69
2021/12/01 07:48:25;;;;;;;;;;;;;;;;;;4547676;28;19916;-69
2021/12/01 07:50:36;;;;;;;;;;;;;;;;;;4548150;28;20473;-69
2021/12/01 07:52:46;;;;;;;;;;;;;;;;;;4548311;28;19931;-69
2021/12/01 07:54:56;;;;;;;;;;;;;;;;;;4548047;28;19924;-69
2021/12/01 07:57:07;;;;;;;;;;;;;;;;;;4548801;28;23308;-68
2021/12/01 07:59:18;;;;;;;;;;;;;;;;;;4547290;28;20025;-69
2021/12/01 08:01:28;;;;;;;;;;;;;;;;;;4549308;28;20050;-69
2021/12/01 08:03:38;;;;;;;;;;;;;;;;;;4549093;28;19916;-68
2021/12/01 08:05:48;;;;;;;;;;;;;;;;;;4550350;28;19916;-69
2021/12/01 08:07:59;;;;;;;;;;;;;;;;;;4548626;28;20078;-69
2021/12/01 08:10:10;;;;;;;;;;;;;;;;;;4547747;28;19925;-69
2021/12/01 08:12:21;;;;;;;;;;;;;;;;;;4548474;28;20530;-69
2021/12/01 08:14:31;;;;;;;;;;;;;;;;;;4546480;28;20015;-70
2021/12/01 08:16:41;;;;;;;;;;;;;;;;;;4548445;28;19981;-69
2021/12/01 08:18:54;;;;;;;;;;;;;;;;;;4547926;28;19970;-69
2021/12/01 08:21:04;;;;;;;;;;;;;;;;;;4549909;28;19917;-69
2021/12/01 08:23:14;;;;;;;;;;;;;;;;;;4547620;28;19920;-69
2021/12/01 08:25:25;;;;;;;;;;;;;;;;;;4548084;28;19916;-69
2021/12/01 08:27:35;;;;;;;;;;;;;;;;;;4547256;28;20653;-69
2021/12/01 08:29:45;;;;;;;;;;;;;;;;;;4545475;28;19921;-70
2021/12/01 08:31:56;;;;;;;;;;;;;;;;;;4547611;28;20024;-69
2021/12/01 08:34:06;;;;;;;;;;;;;;;;;;4547827;28;20017;-69
2021/12/01 08:36:16;;;;;;;;;;;;;;;;;;4544938;28;19936;-69
2021/12/01 08:38:27;;;;;;;;;;;;;;;;;;4546950;28;19928;-69
2021/12/01 08:40:37;;;;;;;;;;;;;;;;;;4547665;28;20388;-70
2021/12/01 08:42:47;;;;;;;;;;;;;;;;;;4548225;28;19912;-69
2021/12/01 08:44:58;;;;;;;;;;;;;;;;;;4548757;28;20479;-69
2021/12/01 08:47:08;;;;;;;;;;;;;;;;;;4549270;28;19920;-69
2021/12/01 08:49:18;;;;;;;;;;;;;;;;;;4547749;28;19963;-70
2021/12/01 08:51:30;;;;;;;;;;;;;;;;;;4546590;28;19970;-70
2021/12/01 08:53:41;;;;;;;;;;;;;;;;;;4547081;28;19990;-69
2021/12/01 08:55:51;;;;;;;;;;;;;;;;;;4548470;28;19959;-71
2021/12/01 08:58:02;;;;;;;;;;;;;;;;;;4548592;28;19921;-71
2021/12/01 09:00:13;;;;;;;;;;;;;;;;;;4547779;28;20002;-71
2021/12/01 09:02:23;;;;;;;;;;;;;;;;;;4546931;28;19974;-70
2021/12/01 09:04:35;;;;;;;;;;;;;;;;;;4547450;28;20047;-70
2021/12/01 09:06:46;;;;;;;;;;;;;;;;;;4547657;28;20450;-71
2021/12/01 09:08:56;;;;;;;;;;;;;;;;;;4548930;28;19916;-70
2021/12/01 09:11:06;;;;;;;;;;;;;;;;;;4550207;28;20278;-70
2021/12/01 09:13:17;;;;;;;;;;;;;;;;;;4545903;28;19925;-71
2021/12/01 09:15:27;;;;;;;;;;;;;;;;;;4547024;28;19916;-70
2021/12/01 09:17:38;;;;;;;;;;;;;;;;;;4546550;28;20074;-71
2021/12/01 09:19:48;;;;;;;;;;;;;;;;;;4548162;28;20380;-71
2021/12/01 09:21:59;;;;;;;;;;;;;;;;;;4547265;28;19920;-70
2021/12/01 09:24:09;;;;;;;;;;;;;;;;;;4547874;28;19923;-70
2021/12/01 09:26:20;;;;;;;;;;;;;;;;;;4545266;28;19917;-71
2021/12/01 09:28:30;;;;;;;;;;;;;;;;;;4544430;28;19916;-70
2021/12/01 09:30:40;;;;;;;;;;;;;;;;;;4547249;28;20371;-71
2021/12/01 09:32:51;;;;;;;;;;;;;;;;;;4547001;28;20037;-70
2021/12/01 09:35:01;;;;;;;;;;;;;;;;;;4546609;28;19916;-71
2021/12/01 09:37:12;;;;;;;;;;;;;;;;;;4547220;28;20274;-70
2021/12/01 09:39:23;;;;;;;;;;;;;;;;;;4550065;28;20658;-71
2021/12/01 09:41:33;;;;;;;;;;;;;;;;;;4545792;28;20534;-70
2021/12/01 09:43:44;;;;;;;;;;;;;;;;;;4531331;28;20399;-70
2021/12/01 09:45:54;;;;;;;;;;;;;;;;;;4546567;28;19916;-70
2021/12/01 09:48:05;;;;;;;;;;;;;;;;;;4555313;28;19920;-70
2021/12/01 09:50:15;;;;;;;;;;;;;;;;;;4555761;28;20067;-71
2021/12/01 09:52:25;;;;;;;;;;;;;;;;;;4548725;28;19916;-71
2021/12/01 09:54:36;;;;;;;;;;;;;;;;;;4547310;28;20420;-71
2021/12/01 09:56:47;;;;;;;;;;;;;;;;;;4546196;28;20385;-70
2021/12/01 09:58:57;;;;;;;;;;;;;;;;;;4546054;28;20679;-71
2021/12/01 10:01:10;;;;;;;;;;;;;;;;;;4546986;28;20452;-72
2021/12/01 10:03:21;;;;;;;;;;;;;;;;;;4531370;28;20018;-70
2021/12/01 10:05:50;;;;;;;;;;;;;;;;;;4546073;28;20015;-70
2021/12/01 10:08:00;;;;;;;;;;;;;;;;;;4555559;28;19916;-71
2021/12/01 10:10:13;;;;;;;;;;;;;;;;;;4532025;28;19925;-71
2021/12/01 10:12:24;;;;;;;;;;;;;;;;;;4546970;28;19998;-71
2021/12/01 10:14:34;;;;;;;;;;;;;;;;;;4550774;28;20018;-71
2021/12/01 10:16:44;;;;;;;;;;;;;;;;;;4548380;28;20369;-71
2021/12/01 10:18:56;;;;;;;;;;;;;;;;;;4547004;28;19952;-71
2021/12/01 10:21:08;;;;;;;;;;;;;;;;;;4548776;28;19920;-71
2021/12/01 10:23:19;;;;;;;;;;;;;;;;;;4550820;28;20018;-71
2021/12/01 10:25:29;;;;;;;;;;;;;;;;;;4548826;28;20012;-71
2021/12/01 10:27:39;;;;;;;;;;;;;;;;;;4550254;28;19921;-71
2021/12/01 10:29:50;;;;;;;;;;;;;;;;;;4548755;28;20236;-71
2021/12/01 10:32:02;;;;;;;;;;;;;;;;;;4549616;28;19917;-70
2021/12/01 10:34:15;;;;;;;;;;;;;;;;;;4548174;28;19943;-71
2021/12/01 10:36:26;;;;;;;;;;;;;;;;;;4550186;28;19922;-71
2021/12/01 10:38:38;;;;;;;;;;;;;;;;;;4551577;28;19927;-71
2021/12/01 10:40:48;;;;;;;;;;;;;;;;;;4548872;28;19920;-70
2021/12/01 10:43:00;;;;;;;;;;;;;;;;;;4534869;28;20464;-70
2021/12/01 10:45:10;;;;;;;;;;;;;;;;;;4548440;28;20011;-71
2021/12/01 10:47:20;;;;;;;;;;;;;;;;;;4548706;28;19912;-70
2021/12/01 10:49:32;;;;;;;;;;;;;;;;;;4549110;28;20438;-70
2021/12/01 10:51:43;;;;;;;;;;;;;;;;;;4549043;28;19924;-70
2021/12/01 10:54:00;;;;;;;;;;;;;;;;;;4548390;28;19955;-71
2021/12/01 10:56:11;;;;;;;;;;;;;;;;;;4546370;28;19916;-71
2021/12/01 10:58:22;;;;;;;;;;;;;;;;;;4546349;28;19920;-71
2021/12/01 11:00:38;;;;;;;;;;;;;;;;;;4548862;28;20025;-71
2021/12/01 11:02:49;;;;;;;;;;;;;;;;;;4550261;28;19974;-70
2021/12/01 11:04:59;;;;;;;;;;;;;;;;;;4548594;28;19951;-70
2021/12/01 11:07:30;;;;;;;;;;;;;;;;;;4549388;28;20312;-70
2021/12/01 11:09:40;;;;;;;;;;;;;;;;;;4549657;28;20484;-70
2021/12/01 11:11:52;;;;;;;;;;;;;;;;;;4548148;28;19921;-70
2021/12/01 11:14:10;;;;;;;;;;;;;;;;;;4549345;28;19967;-70
2021/12/01 11:16:20;;;;;;;;;;;;;;;;;;4548938;28;19909;-70
2021/12/01 11:18:31;;;;;;;;;;;;;;;;;;4547826;28;19921;-70
2021/12/01 11:20:41;;;;;;;;;;;;;;;;;;4548451;28;19963;-71
2021/12/01 11:22:52;;;;;;;;;;;;;;;;;;4557666;28;20011;-71
2021/12/01 11:25:24;;;;;;;;;;;;;;;;;;4549766;28;19916;-70
2021/12/01 11:27:35;;;;;;;;;;;;;;;;;;4549037;28;19960;-70
2021/12/01 11:29:45;;;;;;;;;;;;;;;;;;4534429;28;20027;-70
2021/12/01 11:31:55;;;;;;;;;;;;;;;;;;4551567;28;20158;-70
2021/12/01 11:34:07;;;;;;;;;;;;;;;;;;4548373;28;19927;-71
2021/12/01 11:36:18;;;;;;;;;;;;;;;;;;4549756;28;19916;-71
2021/12/01 11:38:28;;;;;;;;;;;;;;;;;;4550322;28;19916;-71
2021/12/01 11:40:39;;;;;;;;;;;;;;;;;;4549263;28;20519;-71
2021/12/01 11:42:49;;;;;;;;;;;;;;;;;;4548139;28;19913;-71
2021/12/01 11:45:00;;;;;;;;;;;;;;;;;;4547444;28;19920;-70
2021/12/01 11:47:10;;;;;;;;;;;;;;;;;;4549087;28;19916;-71
2021/12/01 11:49:22;;;;;;;;;;;;;;;;;;4549032;28;19912;-71
2021/12/01 11:51:38;;;;;;;;;;;;;;;;;;4534228;28;19994;-71
2021/12/01 11:53:51;;;;;;;;;;;;;;;;;;4549912;28;20004;-71
2021/12/01 11:56:07;;;;;;;;;;;;;;;;;;4557900;28;19939;-71
2021/12/01 11:58:36;;;;;;;;;;;;;;;;;;4546767;28;19920;-70
2021/12/01 12:00:48;;;;;;;;;;;;;;;;;;4549546;28;21255;-71
2021/12/01 12:03:37;;;;;;;;;;;;;;;;;;4548393;28;19928;-70
2021/12/01 12:06:07;;;;;;;;;;;;;;;;;;4500674;28;20034;-70
2021/12/01 12:08:47;;;;;;;;;;;;;;;;;;4500056;28;20496;-70
2021/12/01 12:10:59;;;;;;;;;;;;;;;;;;4487964;28;19987;-70
2021/12/01 12:13:10;;;;;;;;;;;;;;;;;;4490116;28;19937;-70
2021/12/01 12:15:37;;;;;;;;;;;;;;;;;;4502521;28;19913;-70
2021/12/01 12:17:48;;;;;;;;;;;;;;;;;;4490142;28;19952;-70
2021/12/01 12:20:15;;;;;;;;;;;;;;;;;;4500347;28;20435;-70
2021/12/01 12:22:44;;;;;;;;;;;;;;;;;;4502105;28;20680;-70
2021/12/01 12:24:56;;;;;;;;;;;;;;;;;;4499466;28;20016;-70
2021/12/01 12:27:06;;;;;;;;;;;;;;;;;;4498395;28;19917;-70
2021/12/01 12:29:17;;;;;;;;;;;;;;;;;;4488596;28;19922;-70
2021/12/01 12:31:29;;;;;;;;;;;;;;;;;;4499938;28;19983;-70
2021/12/01 12:33:40;;;;;;;;;;;;;;;;;;4488625;28;20140;-70
2021/12/01 12:35:51;;;;;;;;;;;;;;;;;;4488625;28;19978;-70
2021/12/01 12:38:08;;;;;;;;;;;;;;;;;;4546880;28;19956;-71
2021/12/01 12:40:21;;;;;;;;;;;;;;;;;;4550014;28;19966;-71
2021/12/01 12:42:31;;;;;;;;;;;;;;;;;;4548926;28;20546;-71
2021/12/01 12:44:46;;;;;;;;;;;;;;;;;;4548452;28;19917;-71
2021/12/01 12:47:04;;;;;;;;;;;;;;;;;;4546874;28;19916;-70
2021/12/01 12:49:18;;;;;;;;;;;;;;;;;;4547429;28;20487;-70
2021/12/01 12:51:30;;;;;;;;;;;;;;;;;;4546534;28;19927;-70
2021/12/01 12:54:08;;;;;;;;;;;;;;;;;;4547034;28;20015;-71
2021/12/01 12:56:25;;;;;;;;;;;;;;;;;;4549407;28;19924;-71
2021/12/01 12:58:36;;;;;;;;;;;;;;;;;;4546700;28;19939;-72
2021/12/01 13:00:46;;;;;;;;;;;;;;;;;;4546547;28;19924;-72
2021/12/01 13:03:15;;;;;;;;;;;;;;;;;;4546334;28;19916;-72
2021/12/01 13:05:32;;;;;;;;;;;;;;;;;;4548244;28;20476;-73
2021/12/01 13:07:46;;;;;;;;;;;;;;;;;;4547612;28;19998;-72
2021/12/01 13:10:12;;;;;;;;;;;;;;;;;;4546279;28;20500;-72
2021/12/01 13:12:22;;;;;;;;;;;;;;;;;;4547386;28;20663;-73
2021/12/01 13:14:39;;;;;;;;;;;;;;;;;;4549399;28;19920;-73
2021/12/01 13:16:58;;;;;;;;;;;;;;;;;;4548070;28;19913;-72
2021/12/01 13:19:10;;;;;;;;;;;;;;;;;;4548390;28;20031;-72
2021/12/01 13:21:21;;;;;;;;;;;;;;;;;;4547977;28;19963;-72
2021/12/01 13:23:33;;;;;;;;;;;;;;;;;;4548487;28;19913;-71
2021/12/01 13:25:56;;;;;;;;;;;;;;;;;;4547958;28;19920;-71
2021/12/01 13:28:11;;;;;;;;;;;;;;;;;;4555616;28;19920;-71
2021/12/01 13:30:21;;;;;;;;;;;;;;;;;;4546033;28;19921;-72
2021/12/01 13:32:32;;;;;;;;;;;;;;;;;;4546536;28;19924;-72
2021/12/01 13:34:42;;;;;;;;;;;;;;;;;;4546063;28;20347;-72
2021/12/01 13:36:54;;;;;;;;;;;;;;;;;;4561469;28;20019;-71
2021/12/01 13:39:12;;;;;;;;;;;;;;;;;;4546988;28;19998;-71
2021/12/01 13:41:22;;;;;;;;;;;;;;;;;;4547588;28;19920;-71
2021/12/01 13:43:32;;;;;;;;;;;;;;;;;;4546106;28;19921;-71
2021/12/01 13:45:53;;;;;;;;;;;;;;;;;;4553403;28;19939;-71
2021/12/01 13:48:09;;;;;;;;;;;;;;;;;;4549722;28;19971;-72
2021/12/01 13:50:20;;;;;;;;;;;;;;;;;;4550036;28;19924;-71
2021/12/01 13:52:35;;;;;;;;;;;;;;;;;;4549322;28;20009;-71
2021/12/01 13:54:45;;;;;;;;;;;;;;;;;;4549544;28;19917;-71
2021/12/01 13:56:57;;;;;;;;;;;;;;;;;;4549029;28;19917;-71
2021/12/01 13:59:08;;;;;;;;;;;;;;;;;;4548810;28;19917;-71
2021/12/01 14:01:18;;;;;;;;;;;;;;;;;;4534448;28;20467;-71
2021/12/01 14:03:30;;;;;;;;;;;;;;;;;;4551878;28;20397;-71
2021/12/01 14:05:45;;;;;;;;;;;;;;;;;;4548208;28;19916;-71
2021/12/01 14:08:02;;;;;;;;;;;;;;;;;;4550680;28;19920;-70
2021/12/01 14:10:22;;;;;;;;;;;;;;;;;;4549571;28;19919;-71
2021/12/01 14:12:51;;;;;;;;;;;;;;;;;;4547618;28;19962;-70
2021/12/01 14:15:01;;;;;;;;;;;;;;;;;;4549011;28;19990;-70
2021/12/01 14:17:11;;;;;;;;;;;;;;;;;;4549777;28;20071;-71
2021/12/01 14:19:29;;;;;;;;;;;;;;;;;;4551805;28;19971;-70
2021/12/01 14:21:39;;;;;;;;;;;;;;;;;;4548778;28;19913;-70
2021/12/01 14:23:51;;;;;;;;;;;;;;;;;;4550921;28;19916;-70
2021/12/01 14:26:01;;;;;;;;;;;;;;;;;;4547041;28;19994;-70
2021/12/01 14:28:13;;;;;;;;;;;;;;;;;;4548489;28;19916;-70
2021/12/01 14:30:23;;;;;;;;;;;;;;;;;;4549425;28;20003;-70
2021/12/01 14:32:33;;;;;;;;;;;;;;;;;;4548827;28;24820;-70
2021/12/01 14:34:45;;;;;;;;;;;;;;;;;;4549511;28;19967;-70
2021/12/01 14:36:55;;;;;;;;;;;;;;;;;;4547270;28;20500;-71
2021/12/01 14:39:06;;;;;;;;;;;;;;;;;;4558213;28;20386;-71
2021/12/01 14:41:17;;;;;;;;;;;;;;;;;;4547882;28;19920;-71
2021/12/01 14:43:28;;;;;;;;;;;;;;;;;;4550924;28;19979;-70
2021/12/01 14:45:38;;;;;;;;;;;;;;;;;;4547620;28;19938;-71
2021/12/01 14:48:01;;;;;;;;;;;;;;;;;;4549283;28;19928;-70
2021/12/01 14:50:20;;;;;;;;;;;;;;;;;;4547698;28;19920;-71
2021/12/01 14:52:36;;;;;;;;;;;;;;;;;;4549956;28;20468;-71
2021/12/01 14:54:54;;;;;;;;;;;;;;;;;;4548686;28;19916;-71
2021/12/01 14:57:06;;;;;;;;;;;;;;;;;;4550791;28;19924;-71
2021/12/01 14:59:16;;;;;;;;;;;;;;;;;;4548544;28;19916;-70
2021/12/01 15:01:27;;;;;;;;;;;;;;;;;;4549187;28;19920;-70
2021/12/01 15:03:38;;;;;;;;;;;;;;;;;;4547550;28;20019;-70
2021/12/01 15:05:50;;;;;;;;;;;;;;;;;;4549354;28;20034;-71
2021/12/01 15:08:06;;;;;;;;;;;;;;;;;;4551116;28;19920;-71
2021/12/01 15:10:21;;;;;;;;;;;;;;;;;;4548487;28;19921;-71